sensor_id;sensor_type;location;lat;lon;timestamp;P1;durP1;ratioP1;P2;durP2;ratioP2
24485;SDS011;13449;49.374;8.584;2024-02-26T00:01:02;0.93;;;0.90;;
24485;SDS011;13449;49.374;8.584;2024-02-26T00:03:29;1.00;;;0.90;;
24485;SDS011;13449;49.374;8.584;2024-02-26T00:05:56;1.08;;;0.60;;
24485;SDS011;13449;49.374;8.584;2024-02-26T00:08:22;0.45;;;0.43;;
24485;SDS011;13449;49.374;8.584;2024-02-26T00:10:51;1.48;;;0.60;;
24485;SDS011;13449;49.374;8.584;2024-02-26T00:13:18;2.58;;;0.60;;
24485;SDS011;13449;49.374;8.584;2024-02-26T00:15:48;2.88;;;1.27;;
24485;SDS011;13449;49.374;8.584;2024-02-26T00:18:15;1.02;;;0.77;;
24485;SDS011;13449;49.374;8.584;2024-02-26T00:20:41;1.25;;;0.57;;
24485;SDS011;13449;49.374;8.584;2024-02-26T00:23:09;2.20;;;0.95;;
24485;SDS011;13449;49.374;8.584;2024-02-26T00:25:36;0.95;;;0.85;;
24485;SDS011;13449;49.374;8.584;2024-02-26T00:28:04;1.05;;;0.73;;
24485;SDS011;13449;49.374;8.584;2024-02-26T00:30:31;1.15;;;0.77;;
24485;SDS011;13449;49.374;8.584;2024-02-26T00:33:00;0.88;;;0.82;;
24485;SDS011;13449;49.374;8.584;2024-02-26T00:35:27;1.58;;;0.95;;
24485;SDS011;13449;49.374;8.584;2024-02-26T00:37:54;1.27;;;0.82;;
24485;SDS011;13449;49.374;8.584;2024-02-26T00:40:23;0.98;;;0.80;;
24485;SDS011;13449;49.374;8.584;2024-02-26T00:42:49;1.67;;;0.63;;
24485;SDS011;13449;49.374;8.584;2024-02-26T00:45:16;1.67;;;0.75;;
24485;SDS011;13449;49.374;8.584;2024-02-26T00:47:43;0.55;;;0.55;;
24485;SDS011;13449;49.374;8.584;2024-02-26T00:50:14;0.73;;;0.70;;
24485;SDS011;13449;49.374;8.584;2024-02-26T00:52:43;1.30;;;0.68;;
24485;SDS011;13449;49.374;8.584;2024-02-26T00:55:13;1.23;;;0.82;;
24485;SDS011;13449;49.374;8.584;2024-02-26T00:57:39;1.00;;;0.80;;
24485;SDS011;13449;49.374;8.584;2024-02-26T01:00:07;2.47;;;0.98;;
24485;SDS011;13449;49.374;8.584;2024-02-26T01:02:36;0.75;;;0.70;;
24485;SDS011;13449;49.374;8.584;2024-02-26T01:05:05;2.20;;;0.88;;
24485;SDS011;13449;49.374;8.584;2024-02-26T01:07:34;1.55;;;0.95;;
24485;SDS011;13449;49.374;8.584;2024-02-26T01:10:02;1.33;;;1.00;;
24485;SDS011;13449;49.374;8.584;2024-02-26T01:15:02;1.85;;;1.05;;
24485;SDS011;13449;49.374;8.584;2024-02-26T01:17:29;0.80;;;0.65;;
24485;SDS011;13449;49.374;8.584;2024-02-26T01:19:56;1.35;;;0.93;;
24485;SDS011;13449;49.374;8.584;2024-02-26T01:22:23;4.45;;;0.80;;
24485;SDS011;13449;49.374;8.584;2024-02-26T01:24:50;1.10;;;0.80;;
24485;SDS011;13449;49.374;8.584;2024-02-26T01:27:16;1.65;;;0.80;;
24485;SDS011;13449;49.374;8.584;2024-02-26T01:29:43;0.77;;;0.70;;
24485;SDS011;13449;49.374;8.584;2024-02-26T01:32:10;1.02;;;0.80;;
24485;SDS011;13449;49.374;8.584;2024-02-26T01:34:37;1.48;;;0.90;;
24485;SDS011;13449;49.374;8.584;2024-02-26T01:37:03;0.70;;;0.70;;
24485;SDS011;13449;49.374;8.584;2024-02-26T01:39:30;2.40;;;0.98;;
24485;SDS011;13449;49.374;8.584;2024-02-26T01:41:57;6.25;;;1.15;;
24485;SDS011;13449;49.374;8.584;2024-02-26T01:44:23;1.55;;;0.90;;
24485;SDS011;13449;49.374;8.584;2024-02-26T01:46:51;2.90;;;0.93;;
24485;SDS011;13449;49.374;8.584;2024-02-26T01:49:19;1.90;;;0.90;;
24485;SDS011;13449;49.374;8.584;2024-02-26T01:51:46;1.17;;;1.05;;
24485;SDS011;13449;49.374;8.584;2024-02-26T01:54:13;1.42;;;1.10;;
24485;SDS011;13449;49.374;8.584;2024-02-26T01:56:42;1.63;;;1.02;;
24485;SDS011;13449;49.374;8.584;2024-02-26T01:59:09;0.88;;;0.88;;
24485;SDS011;13449;49.374;8.584;2024-02-26T02:01:36;3.03;;;1.10;;
24485;SDS011;13449;49.374;8.584;2024-02-26T02:04:06;2.58;;;1.58;;
24485;SDS011;13449;49.374;8.584;2024-02-26T02:06:32;0.63;;;0.63;;
24485;SDS011;13449;49.374;8.584;2024-02-26T02:08:59;1.92;;;1.00;;
24485;SDS011;13449;49.374;8.584;2024-02-26T02:11:32;1.25;;;0.80;;
24485;SDS011;13449;49.374;8.584;2024-02-26T02:14:00;1.55;;;0.93;;
24485;SDS011;13449;49.374;8.584;2024-02-26T02:16:26;9.57;;;1.30;;
24485;SDS011;13449;49.374;8.584;2024-02-26T02:18:53;1.05;;;0.95;;
24485;SDS011;13449;49.374;8.584;2024-02-26T02:21:20;1.75;;;1.23;;
24485;SDS011;13449;49.374;8.584;2024-02-26T02:23:47;1.58;;;0.77;;
24485;SDS011;13449;49.374;8.584;2024-02-26T02:26:15;0.98;;;0.73;;
24485;SDS011;13449;49.374;8.584;2024-02-26T02:28:42;4.25;;;0.82;;
24485;SDS011;13449;49.374;8.584;2024-02-26T02:31:09;4.75;;;0.95;;
24485;SDS011;13449;49.374;8.584;2024-02-26T02:33:36;3.30;;;0.85;;
24485;SDS011;13449;49.374;8.584;2024-02-26T02:36:03;0.98;;;0.77;;
24485;SDS011;13449;49.374;8.584;2024-02-26T02:38:30;2.58;;;1.05;;
24485;SDS011;13449;49.374;8.584;2024-02-26T02:40:58;2.03;;;0.93;;
24485;SDS011;13449;49.374;8.584;2024-02-26T02:43:24;1.25;;;0.85;;
24485;SDS011;13449;49.374;8.584;2024-02-26T02:45:52;10.20;;;1.30;;
24485;SDS011;13449;49.374;8.584;2024-02-26T02:48:18;1.52;;;1.10;;
24485;SDS011;13449;49.374;8.584;2024-02-26T02:50:47;1.88;;;1.30;;
24485;SDS011;13449;49.374;8.584;2024-02-26T02:53:14;1.55;;;0.80;;
24485;SDS011;13449;49.374;8.584;2024-02-26T02:55:42;0.88;;;0.75;;
24485;SDS011;13449;49.374;8.584;2024-02-26T02:58:11;2.60;;;0.70;;
24485;SDS011;13449;49.374;8.584;2024-02-26T03:00:37;6.40;;;0.70;;
24485;SDS011;13449;49.374;8.584;2024-02-26T03:03:04;1.88;;;0.88;;
24485;SDS011;13449;49.374;8.584;2024-02-26T03:05:31;0.70;;;0.70;;
24485;SDS011;13449;49.374;8.584;2024-02-26T03:07:58;0.60;;;0.60;;
24485;SDS011;13449;49.374;8.584;2024-02-26T03:10:24;0.70;;;0.70;;
24485;SDS011;13449;49.374;8.584;2024-02-26T03:12:51;1.77;;;1.10;;
24485;SDS011;13449;49.374;8.584;2024-02-26T03:15:19;0.52;;;0.50;;
24485;SDS011;13449;49.374;8.584;2024-02-26T03:17:46;1.10;;;0.80;;
24485;SDS011;13449;49.374;8.584;2024-02-26T03:20:15;1.85;;;0.60;;
24485;SDS011;13449;49.374;8.584;2024-02-26T03:22:41;1.70;;;0.80;;
24485;SDS011;13449;49.374;8.584;2024-02-26T03:25:10;0.40;;;0.40;;
24485;SDS011;13449;49.374;8.584;2024-02-26T03:27:37;3.28;;;0.82;;
24485;SDS011;13449;49.374;8.584;2024-02-26T03:30:04;0.88;;;0.30;;
24485;SDS011;13449;49.374;8.584;2024-02-26T03:32:31;1.35;;;0.50;;
24485;SDS011;13449;49.374;8.584;2024-02-26T03:34:57;3.03;;;0.50;;
24485;SDS011;13449;49.374;8.584;2024-02-26T03:37:26;0.45;;;0.45;;
24485;SDS011;13449;49.374;8.584;2024-02-26T03:39:53;0.93;;;0.50;;
24485;SDS011;13449;49.374;8.584;2024-02-26T03:42:23;3.92;;;0.38;;
24485;SDS011;13449;49.374;8.584;2024-02-26T03:44:50;10.48;;;1.88;;
24485;SDS011;13449;49.374;8.584;2024-02-26T03:47:17;2.40;;;1.27;;
24485;SDS011;13449;49.374;8.584;2024-02-26T03:49:43;3.15;;;1.10;;
24485;SDS011;13449;49.374;8.584;2024-02-26T03:52:12;1.00;;;0.80;;
24485;SDS011;13449;49.374;8.584;2024-02-26T03:54:41;1.33;;;0.90;;
24485;SDS011;13449;49.374;8.584;2024-02-26T03:57:07;1.10;;;0.60;;
24485;SDS011;13449;49.374;8.584;2024-02-26T03:59:34;4.55;;;0.80;;
24485;SDS011;13449;49.374;8.584;2024-02-26T04:02:03;0.82;;;0.50;;
24485;SDS011;13449;49.374;8.584;2024-02-26T04:04:29;8.05;;;0.70;;
24485;SDS011;13449;49.374;8.584;2024-02-26T04:06:56;0.95;;;0.73;;
24485;SDS011;13449;49.374;8.584;2024-02-26T04:09:23;1.00;;;0.90;;
24485;SDS011;13449;49.374;8.584;2024-02-26T04:11:49;1.13;;;0.80;;
24485;SDS011;13449;49.374;8.584;2024-02-26T04:14:16;4.40;;;0.70;;
24485;SDS011;13449;49.374;8.584;2024-02-26T04:16:45;0.50;;;0.45;;
24485;SDS011;13449;49.374;8.584;2024-02-26T04:19:11;0.93;;;0.60;;
24485;SDS011;13449;49.374;8.584;2024-02-26T04:21:40;2.42;;;1.27;;
24485;SDS011;13449;49.374;8.584;2024-02-26T04:24:07;1.30;;;0.70;;
24485;SDS011;13449;49.374;8.584;2024-02-26T04:26:34;1.30;;;0.65;;
24485;SDS011;13449;49.374;8.584;2024-02-26T04:29:02;3.95;;;0.40;;
24485;SDS011;13449;49.374;8.584;2024-02-26T04:31:28;0.90;;;0.55;;
24485;SDS011;13449;49.374;8.584;2024-02-26T04:33:55;5.18;;;0.60;;
24485;SDS011;13449;49.374;8.584;2024-02-26T04:36:21;0.93;;;0.70;;
24485;SDS011;13449;49.374;8.584;2024-02-26T04:38:52;0.50;;;0.30;;
24485;SDS011;13449;49.374;8.584;2024-02-26T04:41:22;0.65;;;0.43;;
24485;SDS011;13449;49.374;8.584;2024-02-26T04:43:50;1.48;;;0.50;;
24485;SDS011;13449;49.374;8.584;2024-02-26T04:46:19;0.52;;;0.40;;
24485;SDS011;13449;49.374;8.584;2024-02-26T04:48:48;1.70;;;0.63;;
24485;SDS011;13449;49.374;8.584;2024-02-26T04:51:15;2.63;;;0.50;;
24485;SDS011;13449;49.374;8.584;2024-02-26T04:53:41;2.30;;;0.85;;
24485;SDS011;13449;49.374;8.584;2024-02-26T04:56:10;1.38;;;0.40;;
24485;SDS011;13449;49.374;8.584;2024-02-26T04:58:39;2.17;;;0.52;;
24485;SDS011;13449;49.374;8.584;2024-02-26T05:01:06;3.45;;;0.60;;
24485;SDS011;13449;49.374;8.584;2024-02-26T05:03:33;0.65;;;0.60;;
24485;SDS011;13449;49.374;8.584;2024-02-26T05:06:02;1.85;;;0.82;;
24485;SDS011;13449;49.374;8.584;2024-02-26T05:08:29;0.73;;;0.60;;
24485;SDS011;13449;49.374;8.584;2024-02-26T05:10:56;0.82;;;0.47;;
24485;SDS011;13449;49.374;8.584;2024-02-26T05:13:23;1.02;;;0.68;;
24485;SDS011;13449;49.374;8.584;2024-02-26T05:15:50;1.70;;;1.02;;
24485;SDS011;13449;49.374;8.584;2024-02-26T05:18:18;2.28;;;0.73;;
24485;SDS011;13449;49.374;8.584;2024-02-26T05:20:45;2.85;;;0.65;;
24485;SDS011;13449;49.374;8.584;2024-02-26T05:23:14;2.38;;;0.45;;
24485;SDS011;13449;49.374;8.584;2024-02-26T05:25:41;0.50;;;0.35;;
24485;SDS011;13449;49.374;8.584;2024-02-26T05:28:07;0.38;;;0.30;;
24485;SDS011;13449;49.374;8.584;2024-02-26T05:30:35;6.38;;;1.25;;
24485;SDS011;13449;49.374;8.584;2024-02-26T05:33:01;0.70;;;0.50;;
24485;SDS011;13449;49.374;8.584;2024-02-26T05:35:28;1.05;;;0.43;;
24485;SDS011;13449;49.374;8.584;2024-02-26T05:37:55;0.75;;;0.50;;
24485;SDS011;13449;49.374;8.584;2024-02-26T05:40:21;1.48;;;0.77;;
24485;SDS011;13449;49.374;8.584;2024-02-26T05:42:48;4.00;;;0.93;;
24485;SDS011;13449;49.374;8.584;2024-02-26T05:45:15;1.85;;;0.40;;
24485;SDS011;13449;49.374;8.584;2024-02-26T05:47:42;2.53;;;0.60;;
24485;SDS011;13449;49.374;8.584;2024-02-26T05:50:09;0.75;;;0.50;;
24485;SDS011;13449;49.374;8.584;2024-02-26T05:52:37;1.48;;;0.60;;
24485;SDS011;13449;49.374;8.584;2024-02-26T05:55:07;2.20;;;0.75;;
24485;SDS011;13449;49.374;8.584;2024-02-26T05:57:34;7.40;;;1.02;;
24485;SDS011;13449;49.374;8.584;2024-02-26T06:00:01;5.70;;;0.93;;
24485;SDS011;13449;49.374;8.584;2024-02-26T06:02:30;1.10;;;0.63;;
24485;SDS011;13449;49.374;8.584;2024-02-26T06:04:57;4.13;;;0.47;;
24485;SDS011;13449;49.374;8.584;2024-02-26T06:07:26;1.48;;;0.88;;
24485;SDS011;13449;49.374;8.584;2024-02-26T06:09:54;0.88;;;0.70;;
24485;SDS011;13449;49.374;8.584;2024-02-26T06:12:21;1.30;;;0.57;;
24485;SDS011;13449;49.374;8.584;2024-02-26T06:14:48;0.60;;;0.57;;
24485;SDS011;13449;49.374;8.584;2024-02-26T06:17:14;0.70;;;0.60;;
24485;SDS011;13449;49.374;8.584;2024-02-26T06:19:41;0.52;;;0.52;;
24485;SDS011;13449;49.374;8.584;2024-02-26T06:22:07;0.82;;;0.50;;
24485;SDS011;13449;49.374;8.584;2024-02-26T06:24:37;1.05;;;0.70;;
24485;SDS011;13449;49.374;8.584;2024-02-26T06:27:06;4.03;;;0.88;;
24485;SDS011;13449;49.374;8.584;2024-02-26T06:29:32;4.50;;;0.68;;
24485;SDS011;13449;49.374;8.584;2024-02-26T06:31:59;0.50;;;0.50;;
24485;SDS011;13449;49.374;8.584;2024-02-26T06:34:25;1.05;;;0.68;;
24485;SDS011;13449;49.374;8.584;2024-02-26T06:36:52;0.80;;;0.47;;
24485;SDS011;13449;49.374;8.584;2024-02-26T06:39:18;1.02;;;0.68;;
24485;SDS011;13449;49.374;8.584;2024-02-26T06:41:45;2.13;;;0.90;;
24485;SDS011;13449;49.374;8.584;2024-02-26T06:44:13;1.17;;;0.98;;
24485;SDS011;13449;49.374;8.584;2024-02-26T06:46:40;2.00;;;0.95;;
24485;SDS011;13449;49.374;8.584;2024-02-26T06:49:07;4.90;;;1.10;;
24485;SDS011;13449;49.374;8.584;2024-02-26T06:51:33;3.25;;;0.65;;
24485;SDS011;13449;49.374;8.584;2024-02-26T06:54:00;1.13;;;0.90;;
24485;SDS011;13449;49.374;8.584;2024-02-26T06:56:27;3.63;;;1.13;;
24485;SDS011;13449;49.374;8.584;2024-02-26T06:58:54;4.57;;;1.00;;
24485;SDS011;13449;49.374;8.584;2024-02-26T07:01:21;1.00;;;0.90;;
24485;SDS011;13449;49.374;8.584;2024-02-26T07:03:47;2.35;;;1.23;;
24485;SDS011;13449;49.374;8.584;2024-02-26T07:06:14;2.72;;;1.20;;
24485;SDS011;13449;49.374;8.584;2024-02-26T07:08:43;1.63;;;1.17;;
24485;SDS011;13449;49.374;8.584;2024-02-26T07:11:12;4.60;;;1.25;;
24485;SDS011;13449;49.374;8.584;2024-02-26T07:13:41;1.25;;;1.15;;
24485;SDS011;13449;49.374;8.584;2024-02-26T07:16:08;1.73;;;1.05;;
24485;SDS011;13449;49.374;8.584;2024-02-26T07:18:35;8.68;;;2.67;;
24485;SDS011;13449;49.374;8.584;2024-02-26T07:21:02;4.75;;;2.38;;
24485;SDS011;13449;49.374;8.584;2024-02-26T07:23:30;8.82;;;3.25;;
24485;SDS011;13449;49.374;8.584;2024-02-26T07:25:56;8.75;;;2.88;;
24485;SDS011;13449;49.374;8.584;2024-02-26T07:28:23;11.20;;;4.03;;
24485;SDS011;13449;49.374;8.584;2024-02-26T07:30:50;8.50;;;2.58;;
24485;SDS011;13449;49.374;8.584;2024-02-26T07:33:19;8.13;;;2.08;;
24485;SDS011;13449;49.374;8.584;2024-02-26T07:35:51;2.25;;;1.73;;
24485;SDS011;13449;49.374;8.584;2024-02-26T07:38:20;2.67;;;1.70;;
24485;SDS011;13449;49.374;8.584;2024-02-26T07:41:02;5.75;;;1.48;;
24485;SDS011;13449;49.374;8.584;2024-02-26T07:43:32;4.57;;;2.30;;
24485;SDS011;13449;49.374;8.584;2024-02-26T07:45:58;2.30;;;1.30;;
24485;SDS011;13449;49.374;8.584;2024-02-26T07:48:25;1.42;;;1.02;;
24485;SDS011;13449;49.374;8.584;2024-02-26T07:50:52;3.90;;;1.23;;
24485;SDS011;13449;49.374;8.584;2024-02-26T07:53:19;4.60;;;1.30;;
24485;SDS011;13449;49.374;8.584;2024-02-26T07:55:45;1.55;;;1.00;;
24485;SDS011;13449;49.374;8.584;2024-02-26T07:58:12;2.00;;;0.93;;
24485;SDS011;13449;49.374;8.584;2024-02-26T08:00:39;5.78;;;1.48;;
24485;SDS011;13449;49.374;8.584;2024-02-26T08:03:05;3.05;;;1.17;;
24485;SDS011;13449;49.374;8.584;2024-02-26T08:05:32;1.15;;;0.93;;
24485;SDS011;13449;49.374;8.584;2024-02-26T08:07:59;2.25;;;0.80;;
24485;SDS011;13449;49.374;8.584;2024-02-26T08:10:28;1.40;;;0.82;;
24485;SDS011;13449;49.374;8.584;2024-02-26T08:12:58;3.60;;;1.42;;
24485;SDS011;13449;49.374;8.584;2024-02-26T08:15:32;1.88;;;1.08;;
24485;SDS011;13449;49.374;8.584;2024-02-26T08:18:01;1.35;;;1.10;;
24485;SDS011;13449;49.374;8.584;2024-02-26T08:20:30;3.53;;;1.17;;
24485;SDS011;13449;49.374;8.584;2024-02-26T08:22:59;2.45;;;0.90;;
24485;SDS011;13449;49.374;8.584;2024-02-26T08:25:28;6.00;;;1.33;;
24485;SDS011;13449;49.374;8.584;2024-02-26T08:27:55;2.05;;;1.30;;
24485;SDS011;13449;49.374;8.584;2024-02-26T08:30:21;1.70;;;1.00;;
24485;SDS011;13449;49.374;8.584;2024-02-26T08:32:48;1.10;;;0.82;;
24485;SDS011;13449;49.374;8.584;2024-02-26T08:35:18;1.52;;;0.60;;
24485;SDS011;13449;49.374;8.584;2024-02-26T08:37:46;3.20;;;0.70;;
24485;SDS011;13449;49.374;8.584;2024-02-26T08:40:13;1.13;;;0.80;;
24485;SDS011;13449;49.374;8.584;2024-02-26T08:42:40;2.17;;;0.93;;
24485;SDS011;13449;49.374;8.584;2024-02-26T08:45:07;0.73;;;0.70;;
24485;SDS011;13449;49.374;8.584;2024-02-26T08:47:34;6.80;;;0.70;;
24485;SDS011;13449;49.374;8.584;2024-02-26T08:50:01;1.30;;;0.90;;
24485;SDS011;13449;49.374;8.584;2024-02-26T08:52:28;1.00;;;0.68;;
24485;SDS011;13449;49.374;8.584;2024-02-26T08:54:55;0.90;;;0.50;;
24485;SDS011;13449;49.374;8.584;2024-02-26T08:57:21;1.42;;;0.70;;
24485;SDS011;13449;49.374;8.584;2024-02-26T08:59:48;1.88;;;0.95;;
24485;SDS011;13449;49.374;8.584;2024-02-26T09:02:14;1.20;;;0.90;;
24485;SDS011;13449;49.374;8.584;2024-02-26T09:04:41;1.00;;;0.90;;
24485;SDS011;13449;49.374;8.584;2024-02-26T09:07:08;3.83;;;0.85;;
24485;SDS011;13449;49.374;8.584;2024-02-26T09:09:34;1.40;;;0.80;;
24485;SDS011;13449;49.374;8.584;2024-02-26T09:12:03;1.10;;;0.80;;
24485;SDS011;13449;49.374;8.584;2024-02-26T09:14:30;5.07;;;0.75;;
24485;SDS011;13449;49.374;8.584;2024-02-26T09:16:56;0.82;;;0.77;;
24485;SDS011;13449;49.374;8.584;2024-02-26T09:19:24;1.58;;;1.10;;
24485;SDS011;13449;49.374;8.584;2024-02-26T09:21:54;1.50;;;0.60;;
24485;SDS011;13449;49.374;8.584;2024-02-26T09:24:24;0.75;;;0.70;;
24485;SDS011;13449;49.374;8.584;2024-02-26T09:26:53;1.35;;;0.98;;
24485;SDS011;13449;49.374;8.584;2024-02-26T09:29:20;0.85;;;0.73;;
24485;SDS011;13449;49.374;8.584;2024-02-26T09:31:48;1.70;;;1.02;;
24485;SDS011;13449;49.374;8.584;2024-02-26T09:34:15;4.95;;;1.17;;
24485;SDS011;13449;49.374;8.584;2024-02-26T09:36:41;6.38;;;1.27;;
24485;SDS011;13449;49.374;8.584;2024-02-26T09:39:08;4.72;;;1.42;;
24485;SDS011;13449;49.374;8.584;2024-02-26T09:41:38;12.25;;;2.05;;
24485;SDS011;13449;49.374;8.584;2024-02-26T09:44:05;6.07;;;2.20;;
24485;SDS011;13449;49.374;8.584;2024-02-26T09:46:32;2.55;;;1.80;;
24485;SDS011;13449;49.374;8.584;2024-02-26T09:48:59;7.05;;;1.65;;
24485;SDS011;13449;49.374;8.584;2024-02-26T09:51:26;3.15;;;1.77;;
24485;SDS011;13449;49.374;8.584;2024-02-26T09:53:56;2.17;;;1.50;;
24485;SDS011;13449;49.374;8.584;2024-02-26T09:56:25;8.82;;;2.58;;
24485;SDS011;13449;49.374;8.584;2024-02-26T09:58:52;6.60;;;1.73;;
24485;SDS011;13449;49.374;8.584;2024-02-26T10:01:21;9.00;;;1.65;;
24485;SDS011;13449;49.374;8.584;2024-02-26T10:03:50;8.68;;;1.73;;
24485;SDS011;13449;49.374;8.584;2024-02-26T10:06:21;3.78;;;1.20;;
24485;SDS011;13449;49.374;8.584;2024-02-26T10:08:50;1.15;;;1.05;;
24485;SDS011;13449;49.374;8.584;2024-02-26T10:11:20;1.05;;;0.82;;
24485;SDS011;13449;49.374;8.584;2024-02-26T10:13:47;0.75;;;0.65;;
24485;SDS011;13449;49.374;8.584;2024-02-26T10:16:16;1.40;;;0.95;;
24485;SDS011;13449;49.374;8.584;2024-02-26T10:21:17;1.65;;;0.95;;
24485;SDS011;13449;49.374;8.584;2024-02-26T10:23:44;0.90;;;0.70;;
24485;SDS011;13449;49.374;8.584;2024-02-26T10:26:13;1.33;;;1.05;;
24485;SDS011;13449;49.374;8.584;2024-02-26T10:28:46;7.28;;;0.75;;
24485;SDS011;13449;49.374;8.584;2024-02-26T10:31:17;0.80;;;0.80;;
24485;SDS011;13449;49.374;8.584;2024-02-26T10:33:45;1.48;;;0.68;;
24485;SDS011;13449;49.374;8.584;2024-02-26T10:36:12;0.95;;;0.77;;
24485;SDS011;13449;49.374;8.584;2024-02-26T10:38:39;1.30;;;0.68;;
24485;SDS011;13449;49.374;8.584;2024-02-26T10:41:09;2.15;;;0.88;;
24485;SDS011;13449;49.374;8.584;2024-02-26T10:43:41;1.10;;;0.75;;
24485;SDS011;13449;49.374;8.584;2024-02-26T10:46:08;1.15;;;0.80;;
24485;SDS011;13449;49.374;8.584;2024-02-26T10:48:35;3.30;;;0.90;;
24485;SDS011;13449;49.374;8.584;2024-02-26T10:51:03;1.55;;;0.70;;
24485;SDS011;13449;49.374;8.584;2024-02-26T10:53:33;0.55;;;0.55;;
24485;SDS011;13449;49.374;8.584;2024-02-26T10:56:02;0.70;;;0.60;;
24485;SDS011;13449;49.374;8.584;2024-02-26T10:58:34;0.47;;;0.30;;
24485;SDS011;13449;49.374;8.584;2024-02-26T11:01:02;1.20;;;0.73;;
24485;SDS011;13449;49.374;8.584;2024-02-26T11:03:31;0.60;;;0.60;;
24485;SDS011;13449;49.374;8.584;2024-02-26T11:05:58;0.73;;;0.60;;
24485;SDS011;13449;49.374;8.584;2024-02-26T11:08:27;1.15;;;0.80;;
24485;SDS011;13449;49.374;8.584;2024-02-26T11:10:54;0.85;;;0.40;;
24485;SDS011;13449;49.374;8.584;2024-02-26T11:13:21;1.45;;;0.40;;
24485;SDS011;13449;49.374;8.584;2024-02-26T11:15:49;0.88;;;0.52;;
24485;SDS011;13449;49.374;8.584;2024-02-26T11:18:19;1.20;;;0.90;;
24485;SDS011;13449;49.374;8.584;2024-02-26T11:20:46;0.50;;;0.50;;
24485;SDS011;13449;49.374;8.584;2024-02-26T11:23:15;2.78;;;0.57;;
24485;SDS011;13449;49.374;8.584;2024-02-26T11:25:42;4.15;;;0.68;;
24485;SDS011;13449;49.374;8.584;2024-02-26T11:28:10;0.85;;;0.70;;
24485;SDS011;13449;49.374;8.584;2024-02-26T11:30:41;2.05;;;0.47;;
24485;SDS011;13449;49.374;8.584;2024-02-26T11:33:14;0.40;;;0.38;;
24485;SDS011;13449;49.374;8.584;2024-02-26T11:35:41;1.05;;;0.82;;
24485;SDS011;13449;49.374;8.584;2024-02-26T11:38:08;0.73;;;0.55;;
24485;SDS011;13449;49.374;8.584;2024-02-26T11:40:44;2.22;;;0.77;;
24485;SDS011;13449;49.374;8.584;2024-02-26T11:43:11;0.85;;;0.65;;
24485;SDS011;13449;49.374;8.584;2024-02-26T11:48:15;2.33;;;0.60;;
24485;SDS011;13449;49.374;8.584;2024-02-26T11:50:55;1.33;;;0.70;;
24485;SDS011;13449;49.374;8.584;2024-02-26T11:53:25;1.13;;;0.73;;
24485;SDS011;13449;49.374;8.584;2024-02-26T11:58:42;1.00;;;0.30;;
24485;SDS011;13449;49.374;8.584;2024-02-26T12:04:06;0.75;;;0.70;;
24485;SDS011;13449;49.374;8.584;2024-02-26T12:09:30;0.73;;;0.70;;
24485;SDS011;13449;49.374;8.584;2024-02-26T12:14:34;0.93;;;0.47;;
24485;SDS011;13449;49.374;8.584;2024-02-26T12:17:07;1.88;;;0.77;;
24485;SDS011;13449;49.374;8.584;2024-02-26T12:19:45;6.90;;;0.50;;
24485;SDS011;13449;49.374;8.584;2024-02-26T12:22:13;0.55;;;0.55;;
24485;SDS011;13449;49.374;8.584;2024-02-26T12:24:43;1.13;;;0.55;;
24485;SDS011;13449;49.374;8.584;2024-02-26T12:27:10;0.50;;;0.50;;
24485;SDS011;13449;49.374;8.584;2024-02-26T12:29:37;0.68;;;0.55;;
24485;SDS011;13449;49.374;8.584;2024-02-26T12:32:04;0.52;;;0.52;;
24485;SDS011;13449;49.374;8.584;2024-02-26T12:34:34;0.30;;;0.30;;
24485;SDS011;13449;49.374;8.584;2024-02-26T12:37:01;0.75;;;0.57;;
24485;SDS011;13449;49.374;8.584;2024-02-26T12:39:28;1.00;;;0.47;;
24485;SDS011;13449;49.374;8.584;2024-02-26T12:41:58;0.80;;;0.65;;
24485;SDS011;13449;49.374;8.584;2024-02-26T12:44:26;0.45;;;0.40;;
24485;SDS011;13449;49.374;8.584;2024-02-26T12:47:02;1.25;;;0.50;;
24485;SDS011;13449;49.374;8.584;2024-02-26T12:49:30;0.93;;;0.40;;
24485;SDS011;13449;49.374;8.584;2024-02-26T12:51:58;1.27;;;0.40;;
24485;SDS011;13449;49.374;8.584;2024-02-26T12:54:28;2.47;;;0.50;;
24485;SDS011;13449;49.374;8.584;2024-02-26T12:56:58;0.38;;;0.20;;
24485;SDS011;13449;49.374;8.584;2024-02-26T12:59:29;0.82;;;0.20;;
24485;SDS011;13449;49.374;8.584;2024-02-26T13:01:56;0.28;;;0.28;;
24485;SDS011;13449;49.374;8.584;2024-02-26T13:04:24;0.40;;;0.30;;
24485;SDS011;13449;49.374;8.584;2024-02-26T13:06:52;0.90;;;0.43;;
24485;SDS011;13449;49.374;8.584;2024-02-26T13:09:21;0.38;;;0.20;;
24485;SDS011;13449;49.374;8.584;2024-02-26T13:11:55;0.43;;;0.30;;
24485;SDS011;13449;49.374;8.584;2024-02-26T13:14:22;0.45;;;0.32;;
24485;SDS011;13449;49.374;8.584;2024-02-26T13:16:58;0.25;;;0.25;;
24485;SDS011;13449;49.374;8.584;2024-02-26T13:19:24;0.32;;;0.28;;
24485;SDS011;13449;49.374;8.584;2024-02-26T13:21:51;0.40;;;0.40;;
24485;SDS011;13449;49.374;8.584;2024-02-26T13:24:20;1.55;;;0.30;;
24485;SDS011;13449;49.374;8.584;2024-02-26T13:26:55;0.38;;;0.38;;
24485;SDS011;13449;49.374;8.584;2024-02-26T13:29:21;0.95;;;0.50;;
24485;SDS011;13449;49.374;8.584;2024-02-26T13:31:53;0.20;;;0.20;;
24485;SDS011;13449;49.374;8.584;2024-02-26T13:34:26;0.30;;;0.30;;
24485;SDS011;13449;49.374;8.584;2024-02-26T13:36:54;0.17;;;0.17;;
24485;SDS011;13449;49.374;8.584;2024-02-26T13:39:24;0.30;;;0.30;;
24485;SDS011;13449;49.374;8.584;2024-02-26T13:41:53;6.50;;;0.30;;
24485;SDS011;13449;49.374;8.584;2024-02-26T13:44:20;0.30;;;0.30;;
24485;SDS011;13449;49.374;8.584;2024-02-26T13:46:47;0.75;;;0.30;;
24485;SDS011;13449;49.374;8.584;2024-02-26T13:49:15;0.60;;;0.40;;
24485;SDS011;13449;49.374;8.584;2024-02-26T13:51:42;0.40;;;0.22;;
24485;SDS011;13449;49.374;8.584;2024-02-26T13:54:11;3.20;;;0.40;;
24485;SDS011;13449;49.374;8.584;2024-02-26T13:56:40;2.45;;;0.32;;
24485;SDS011;13449;49.374;8.584;2024-02-26T13:59:08;2.00;;;0.52;;
24485;SDS011;13449;49.374;8.584;2024-02-26T14:01:37;1.77;;;0.90;;
24485;SDS011;13449;49.374;8.584;2024-02-26T14:04:06;2.10;;;0.55;;
24485;SDS011;13449;49.374;8.584;2024-02-26T14:06:35;0.47;;;0.30;;
24485;SDS011;13449;49.374;8.584;2024-02-26T14:09:02;0.55;;;0.30;;
24485;SDS011;13449;49.374;8.584;2024-02-26T14:11:30;0.25;;;0.20;;
24485;SDS011;13449;49.374;8.584;2024-02-26T14:13:57;1.65;;;0.22;;
24485;SDS011;13449;49.374;8.584;2024-02-26T14:16:23;0.20;;;0.20;;
24485;SDS011;13449;49.374;8.584;2024-02-26T14:18:55;3.55;;;1.58;;
24485;SDS011;13449;49.374;8.584;2024-02-26T14:21:22;1.88;;;0.30;;
24485;SDS011;13449;49.374;8.584;2024-02-26T14:23:51;2.38;;;0.32;;
24485;SDS011;13449;49.374;8.584;2024-02-26T14:26:24;0.30;;;0.30;;
24485;SDS011;13449;49.374;8.584;2024-02-26T14:28:51;0.32;;;0.30;;
24485;SDS011;13449;49.374;8.584;2024-02-26T14:31:17;0.20;;;0.20;;
24485;SDS011;13449;49.374;8.584;2024-02-26T14:33:44;0.30;;;0.10;;
24485;SDS011;13449;49.374;8.584;2024-02-26T14:36:11;0.28;;;0.20;;
24485;SDS011;13449;49.374;8.584;2024-02-26T14:38:40;0.63;;;0.22;;
24485;SDS011;13449;49.374;8.584;2024-02-26T14:41:07;1.10;;;0.30;;
24485;SDS011;13449;49.374;8.584;2024-02-26T14:43:35;1.35;;;0.60;;
24485;SDS011;13449;49.374;8.584;2024-02-26T14:46:01;1.50;;;0.80;;
24485;SDS011;13449;49.374;8.584;2024-02-26T14:48:28;0.40;;;0.40;;
24485;SDS011;13449;49.374;8.584;2024-02-26T14:50:57;0.85;;;0.40;;
24485;SDS011;13449;49.374;8.584;2024-02-26T14:53:31;0.10;;;0.10;;
24485;SDS011;13449;49.374;8.584;2024-02-26T14:55:58;0.20;;;0.20;;
24485;SDS011;13449;49.374;8.584;2024-02-26T14:58:25;0.30;;;0.25;;
24485;SDS011;13449;49.374;8.584;2024-02-26T15:00:55;0.25;;;0.20;;
24485;SDS011;13449;49.374;8.584;2024-02-26T15:03:21;0.65;;;0.40;;
24485;SDS011;13449;49.374;8.584;2024-02-26T15:05:48;0.28;;;0.20;;
24485;SDS011;13449;49.374;8.584;2024-02-26T15:08:17;0.20;;;0.15;;
24485;SDS011;13449;49.374;8.584;2024-02-26T15:10:44;0.10;;;0.10;;